Time;durP1;ratioP1;P1;durP2;ratioP2;P2;SDS_P1;SDS_P2;PMS_P1;PMS_P2;Temp;Humidity;BMP_temperature;BMP_pressure;BME280_temperature;BME280_humidity;BME280_pressure;Samples;Min_cycle;Max_cycle;Signal;HPM_P1;HPM_P2
2022/04/14 00:01:43;;;;;;;3.33;2.63;;;11.50;99.90;;;;;;5032818;28;20194;-69
2022/04/14 00:04:09;;;;;;;2.70;2.50;;;11.50;99.90;;;;;;5033463;28;20281;-70
2022/04/14 00:06:34;;;;;;;4.43;3.40;;;11.50;99.90;;;;;;5032811;28;20213;-68
2022/04/14 00:09:00;;;;;;;3.00;2.80;;;11.40;99.90;;;;;;5034024;28;20289;-68
2022/04/14 00:11:26;;;;;;;2.80;2.60;;;11.40;99.90;;;;;;5034089;28;20181;-70
2022/04/14 00:13:51;;;;;;;3.30;3.00;;;11.30;99.90;;;;;;5033609;28;20899;-70
2022/04/14 00:16:17;;;;;;;4.10;3.23;;;11.30;99.90;;;;;;5033472;28;20675;-68
2022/04/14 00:18:43;;;;;;;4.33;3.30;;;11.30;99.90;;;;;;5033779;28;20178;-67
2022/04/14 00:21:08;;;;;;;3.70;3.20;;;11.30;99.90;;;;;;5033764;28;20173;-68
2022/04/14 00:23:34;;;;;;;3.77;3.47;;;11.20;99.90;;;;;;5033381;28;20170;-66
2022/04/14 00:26:00;;;;;;;4.07;3.70;;;11.20;99.90;;;;;;5033546;28;20522;-69
2022/04/14 00:28:25;;;;;;;3.13;2.83;;;11.20;99.90;;;;;;5033281;28;20194;-69
2022/04/14 00:30:51;;;;;;;3.80;3.50;;;11.20;99.90;;;;;;5033258;28;20182;-67
2022/04/14 00:33:17;;;;;;;3.67;3.20;;;11.20;99.90;;;;;;5033206;28;20166;-66
2022/04/14 00:35:43;;;;;;;2.55;2.40;;;11.10;99.90;;;;;;5032084;28;20194;-68
2022/04/14 00:38:09;;;;;;;3.50;3.20;;;11.10;99.90;;;;;;5033048;28;20213;-68
2022/04/14 00:40:34;;;;;;;2.33;2.20;;;11.10;99.90;;;;;;5033590;28;20257;-68
2022/04/14 00:43:00;;;;;;;3.70;3.40;;;11.10;99.90;;;;;;5033359;28;20245;-69
2022/04/14 00:45:25;;;;;;;4.13;2.90;;;11.00;99.90;;;;;;5033110;28;20194;-67
2022/04/14 00:47:53;;;;;;;5.07;4.57;;;10.90;99.90;;;;;;5033385;28;20184;-70
2022/04/14 00:50:19;;;;;;;2.88;2.60;;;10.90;99.90;;;;;;5032967;28;20181;-70
2022/04/14 00:52:46;;;;;;;3.10;2.90;;;10.90;99.90;;;;;;5033171;28;20248;-67
2022/04/14 00:55:14;;;;;;;3.75;3.30;;;10.80;99.90;;;;;;5033041;28;20194;-69
2022/04/14 00:57:39;;;;;;;3.25;3.05;;;10.80;99.90;;;;;;5033240;28;20177;-70
2022/04/14 01:00:06;;;;;;;3.60;3.23;;;10.70;99.90;;;;;;5033442;28;20170;-68
2022/04/14 01:02:33;;;;;;;3.03;2.83;;;10.70;99.90;;;;;;5033149;28;20159;-68
2022/04/14 01:04:59;;;;;;;4.78;4.40;;;10.60;99.90;;;;;;5032209;28;20221;-69
2022/04/14 01:07:25;;;;;;;3.70;3.40;;;10.60;99.90;;;;;;5033099;28;20171;-68
2022/04/14 01:09:53;;;;;;;3.40;2.85;;;10.60;99.90;;;;;;5032947;28;20201;-69
2022/04/14 01:12:19;;;;;;;2.92;2.80;;;10.60;99.90;;;;;;5033324;28;20561;-69
2022/04/14 01:14:45;;;;;;;4.07;3.78;;;10.50;99.90;;;;;;5032780;28;20174;-67
2022/04/14 01:17:11;;;;;;;4.43;3.50;;;10.50;99.90;;;;;;5033029;28;20185;-70
2022/04/14 01:19:38;;;;;;;3.70;3.40;;;10.40;99.90;;;;;;5032763;28;20257;-68
2022/04/14 01:22:22;;;;;;;3.00;2.80;;;10.40;99.90;;;;;;5031622;28;20427;-68
2022/04/14 01:24:48;;;;;;;3.65;3.35;;;10.50;99.90;;;;;;5032644;28;20217;-67
2022/04/14 01:27:14;;;;;;;3.40;3.20;;;10.50;99.90;;;;;;5032981;28;20201;-68
2022/04/14 01:29:39;;;;;;;3.67;3.37;;;10.40;99.90;;;;;;5032956;28;20676;-70
2022/04/14 01:32:06;;;;;;;3.40;3.20;;;10.40;99.90;;;;;;5032429;28;20679;-69
2022/04/14 01:34:31;;;;;;;4.53;3.63;;;10.40;99.90;;;;;;5032449;28;20158;-67
2022/04/14 01:36:58;;;;;;;3.80;3.50;;;10.40;99.90;;;;;;5032995;28;20170;-67
2022/04/14 01:39:24;;;;;;;3.10;2.90;;;10.30;99.90;;;;;;5032456;28;20225;-69
2022/04/14 01:41:50;;;;;;;3.10;2.90;;;10.30;99.90;;;;;;5035331;28;20641;-70
2022/04/14 01:44:15;;;;;;;2.70;2.50;;;10.30;99.90;;;;;;5036345;28;20408;-67
2022/04/14 01:46:41;;;;;;;3.60;3.27;;;10.30;99.90;;;;;;5036698;28;20198;-67
2022/04/14 01:49:08;;;;;;;5.70;2.73;;;10.30;99.90;;;;;;5033721;28;20545;-67
2022/04/14 01:51:35;;;;;;;3.00;2.75;;;10.20;99.90;;;;;;5026239;28;20177;-68
2022/04/14 01:54:01;;;;;;;3.33;3.03;;;10.20;99.90;;;;;;5035691;28;20170;-67
2022/04/14 01:56:26;;;;;;;6.27;4.00;;;10.20;99.90;;;;;;5036439;28;20188;-68
2022/04/14 01:58:55;;;;;;;2.70;2.50;;;10.20;99.90;;;;;;5036015;28;20919;-68
2022/04/14 02:01:21;;;;;;;2.60;2.47;;;10.20;99.90;;;;;;5036337;28;20174;-68
2022/04/14 02:03:47;;;;;;;3.23;2.93;;;10.20;99.90;;;;;;5035292;28;20276;-69
2022/04/14 02:06:14;;;;;;;4.18;3.13;;;10.10;99.90;;;;;;5035797;28;20994;-70
2022/04/14 02:08:40;;;;;;;3.92;2.97;;;10.10;99.90;;;;;;5035572;28;20210;-68
2022/04/14 02:11:06;;;;;;;4.00;3.70;;;10.10;99.90;;;;;;5036146;28;20172;-68
2022/04/14 02:13:33;;;;;;;3.63;2.72;;;10.00;99.90;;;;;;5034302;28;20301;-68
2022/04/14 02:15:59;;;;;;;3.97;3.20;;;10.00;99.90;;;;;;5035868;28;20284;-71
2022/04/14 02:18:25;;;;;;;2.80;2.60;;;9.90;99.90;;;;;;5036292;28;20537;-69
2022/04/14 02:20:51;;;;;;;4.10;3.80;;;9.90;99.90;;;;;;5035426;28;20174;-67
2022/04/14 02:23:16;;;;;;;3.30;3.00;;;9.80;99.90;;;;;;5035194;28;20182;-69
2022/04/14 02:25:42;;;;;;;2.87;2.67;;;9.80;99.90;;;;;;5035805;28;20194;-67
2022/04/14 02:28:08;;;;;;;3.07;2.80;;;9.80;99.90;;;;;;5035435;28;20559;-69
2022/04/14 02:30:34;;;;;;;2.37;2.10;;;9.70;99.90;;;;;;5037932;28;20436;-68
2022/04/14 02:33:00;;;;;;;5.30;3.90;;;9.70;99.90;;;;;;5035793;28;20517;-67
2022/04/14 02:35:26;;;;;;;2.53;2.33;;;9.70;99.90;;;;;;5034728;28;20968;-67
2022/04/14 02:37:51;;;;;;;2.90;2.70;;;9.70;99.90;;;;;;5035713;28;20171;-68
2022/04/14 02:40:18;;;;;;;5.00;3.70;;;9.60;99.90;;;;;;5035619;28;20240;-69
2022/04/14 02:42:46;;;;;;;2.95;2.75;;;9.60;99.90;;;;;;5035633;28;20201;-68
2022/04/14 02:45:12;;;;;;;2.05;1.95;;;9.60;99.90;;;;;;5034953;28;20557;-68
2022/04/14 02:47:38;;;;;;;5.85;3.38;;;9.60;99.90;;;;;;5034288;28;20220;-67
2022/04/14 02:50:04;;;;;;;4.10;2.90;;;9.50;99.90;;;;;;5035272;28;20645;-68
2022/04/14 02:52:30;;;;;;;2.80;2.60;;;9.60;99.90;;;;;;5035030;28;20223;-69
2022/04/14 02:54:56;;;;;;;2.57;2.40;;;9.60;99.90;;;;;;5034859;28;20194;-69
2022/04/14 02:57:21;;;;;;;2.50;2.30;;;9.50;99.90;;;;;;5035504;28;20174;-68
2022/04/14 02:59:47;;;;;;;3.60;2.90;;;9.50;99.90;;;;;;5035131;28;20282;-68
2022/04/14 03:02:13;;;;;;;4.47;3.20;;;9.50;99.90;;;;;;5034724;28;20694;-68
2022/04/14 03:04:38;;;;;;;2.60;2.40;;;9.50;99.90;;;;;;5034751;28;20186;-68
2022/04/14 03:07:04;;;;;;;3.30;3.10;;;9.50;99.90;;;;;;5034841;28;20231;-70
2022/04/14 03:09:30;;;;;;;2.70;2.50;;;9.40;99.90;;;;;;5034910;28;20693;-67
2022/04/14 03:11:55;;;;;;;2.60;2.40;;;9.50;99.90;;;;;;5035026;28;20403;-66
2022/04/14 03:14:21;;;;;;;2.57;2.37;;;9.40;99.90;;;;;;5034558;28;20177;-67
2022/04/14 03:16:47;;;;;;;2.50;2.40;;;9.40;99.90;;;;;;5034284;28;20196;-67
2022/04/14 03:19:12;;;;;;;2.60;2.40;;;9.40;99.90;;;;;;5034687;28;20183;-69
2022/04/14 03:21:38;;;;;;;3.10;2.90;;;9.40;99.90;;;;;;5034852;28;20706;-67
2022/04/14 03:24:04;;;;;;;3.40;3.10;;;9.40;99.90;;;;;;5034412;28;20256;-69
2022/04/14 03:26:30;;;;;;;3.37;2.90;;;9.30;99.90;;;;;;5034746;28;20190;-68
2022/04/14 03:28:55;;;;;;;3.60;3.30;;;9.30;99.90;;;;;;5034600;28;20453;-68
2022/04/14 03:31:21;;;;;;;3.90;3.50;;;9.30;99.90;;;;;;5034161;28;20176;-68
2022/04/14 03:33:46;;;;;;;2.70;2.50;;;9.20;99.90;;;;;;5034274;28;20170;-69
2022/04/14 03:36:12;;;;;;;3.40;2.70;;;9.20;99.90;;;;;;5034681;28;20190;-69
2022/04/14 03:38:38;;;;;;;4.50;2.87;;;9.20;99.90;;;;;;5034594;28;20330;-68
2022/04/14 03:41:05;;;;;;;3.97;3.60;;;9.20;99.90;;;;;;5034511;28;20181;-69
2022/04/14 03:43:34;;;;;;;3.55;3.25;;;9.10;99.90;;;;;;5034058;28;20667;-67
2022/04/14 03:46:00;;;;;;;4.65;3.10;;;9.10;99.90;;;;;;5034037;28;20194;-68
2022/04/14 03:48:25;;;;;;;2.80;2.60;;;9.10;99.90;;;;;;5034418;28;20565;-68
2022/04/14 03:50:51;;;;;;;4.67;2.93;;;9.00;99.90;;;;;;5033305;28;20258;-66
2022/04/14 03:53:20;;;;;;;2.50;2.30;;;9.00;99.90;;;;;;5034320;28;20176;-68
2022/04/14 03:55:46;;;;;;;4.10;3.20;;;9.00;99.90;;;;;;5034481;28;20190;-68
2022/04/14 03:58:12;;;;;;;3.75;3.38;;;9.00;99.90;;;;;;5034160;28;20244;-68
2022/04/14 04:00:38;;;;;;;3.30;3.00;;;9.00;99.90;;;;;;5033979;28;20228;-67
2022/04/14 04:03:04;;;;;;;2.43;2.30;;;9.00;99.90;;;;;;5033916;28;20189;-69
2022/04/14 04:05:29;;;;;;;3.43;2.80;;;9.00;99.90;;;;;;5033727;28;20435;-68
2022/04/14 04:07:55;;;;;;;3.30;3.00;;;8.90;99.90;;;;;;5033326;28;20424;-69
2022/04/14 04:10:21;;;;;;;3.80;2.80;;;8.90;99.90;;;;;;5033939;28;20217;-67
2022/04/14 04:12:46;;;;;;;14.17;5.43;;;8.90;99.90;;;;;;5033900;28;20173;-69
2022/04/14 04:15:12;;;;;;;3.23;2.90;;;8.80;99.90;;;;;;5065427;28;20212;-68
2022/04/14 04:17:39;;;;;;;4.93;3.00;;;8.90;99.90;;;;;;5033764;28;20180;-67
2022/04/14 04:20:06;;;;;;;3.03;2.80;;;8.90;99.90;;;;;;5033544;28;20514;-67
2022/04/14 04:22:33;;;;;;;3.45;3.13;;;8.80;99.90;;;;;;5033824;28;20203;-68
2022/04/14 04:24:59;;;;;;;4.93;3.20;;;8.80;99.90;;;;;;5033144;28;20208;-69
2022/04/14 04:27:25;;;;;;;3.33;3.00;;;8.80;99.90;;;;;;5032543;28;20173;-68
2022/04/14 04:29:51;;;;;;;4.05;3.65;;;8.80;99.90;;;;;;5033185;28;20201;-68
2022/04/14 04:32:17;;;;;;;5.60;5.10;;;8.80;99.90;;;;;;5033051;28;20188;-69
2022/04/14 04:34:43;;;;;;;5.10;3.53;;;8.70;99.90;;;;;;5032102;28;20431;-69
2022/04/14 04:37:08;;;;;;;3.60;3.00;;;8.80;99.90;;;;;;5033528;28;20527;-69
2022/04/14 04:39:34;;;;;;;3.03;2.83;;;8.70;99.90;;;;;;5033409;28;20540;-67
2022/04/14 04:42:00;;;;;;;3.67;3.33;;;8.70;99.90;;;;;;5033599;28;20196;-71
2022/04/14 04:44:26;;;;;;;4.33;3.30;;;8.70;99.90;;;;;;5024328;28;20170;-68
2022/04/14 04:46:52;;;;;;;3.33;2.83;;;8.70;99.90;;;;;;5013606;28;20263;-66
2022/04/14 04:49:17;;;;;;;3.40;3.20;;;8.70;99.90;;;;;;5020315;28;20205;-70
2022/04/14 04:51:43;;;;;;;6.63;4.10;;;8.70;99.90;;;;;;5031738;28;20166;-69
2022/04/14 04:54:08;;;;;;;4.40;3.90;;;8.70;99.90;;;;;;5030992;28;20174;-68
2022/04/14 04:56:34;;;;;;;3.17;2.90;;;8.80;99.90;;;;;;5031090;28;20196;-67
2022/04/14 04:59:00;;;;;;;4.67;4.27;;;8.90;99.90;;;;;;5031768;28;20248;-70
2022/04/14 05:01:25;;;;;;;4.30;3.90;;;8.90;99.90;;;;;;5031777;28;20178;-68
2022/04/14 05:03:51;;;;;;;4.67;4.27;;;9.00;99.90;;;;;;5031401;28;20250;-68
2022/04/14 05:06:17;;;;;;;3.00;2.80;;;9.00;99.90;;;;;;5032336;28;20280;-69
2022/04/14 05:08:42;;;;;;;3.73;3.53;;;9.20;99.90;;;;;;5033201;28;20590;-69
2022/04/14 05:11:08;;;;;;;3.50;3.20;;;9.20;99.90;;;;;;5032881;28;20520;-69
2022/04/14 05:13:34;;;;;;;4.17;3.80;;;9.40;99.90;;;;;;5032822;28;20166;-69
2022/04/14 05:16:02;;;;;;;3.20;2.90;;;9.50;99.90;;;;;;5034279;28;20181;-67
2022/04/14 05:18:27;;;;;;;4.13;3.20;;;9.80;99.90;;;;;;5037172;28;20435;-68
2022/04/14 05:20:53;;;;;;;4.90;4.00;;;10.00;99.90;;;;;;5037317;28;20162;-69
2022/04/14 05:23:19;;;;;;;5.00;4.10;;;10.20;99.90;;;;;;5036757;28;20170;-69
2022/04/14 05:25:44;;;;;;;5.03;3.90;;;10.40;99.90;;;;;;5036623;28;20216;-68
2022/04/14 05:28:10;;;;;;;3.80;3.50;;;10.60;99.90;;;;;;5037105;28;20198;-67
2022/04/14 05:30:36;;;;;;;3.33;3.03;;;10.90;99.90;;;;;;5036970;28;20517;-69
2022/04/14 05:33:01;;;;;;;3.63;3.17;;;11.10;99.90;;;;;;5036837;28;20169;-67
2022/04/14 05:35:27;;;;;;;3.33;3.00;;;11.30;99.90;;;;;;5036428;28;20186;-68
2022/04/14 05:37:53;;;;;;;3.80;3.50;;;11.60;99.90;;;;;;5036419;28;20178;-68
2022/04/14 05:40:18;;;;;;;3.77;3.47;;;11.90;99.90;;;;;;5036652;28;20225;-68
2022/04/14 05:42:47;;;;;;;3.47;3.17;;;12.10;99.90;;;;;;5036555;28;20169;-68
2022/04/14 05:45:13;;;;;;;6.20;4.97;;;12.30;99.90;;;;;;5036408;28;20282;-68
2022/04/14 05:47:39;;;;;;;4.53;4.13;;;12.40;99.90;;;;;;5036770;28;20745;-67
2022/04/14 05:50:06;;;;;;;4.43;3.93;;;12.50;99.90;;;;;;5036836;28;20466;-68
2022/04/14 05:52:31;;;;;;;5.20;3.93;;;12.50;99.90;;;;;;5035595;28;20432;-67
2022/04/14 05:55:01;;;;;;;6.10;5.10;;;12.60;99.90;;;;;;5035540;28;20443;-68
2022/04/14 05:57:27;;;;;;;4.80;4.40;;;12.80;99.90;;;;;;5035976;28;20165;-69
2022/04/14 05:59:53;;;;;;;4.97;4.47;;;13.10;99.90;;;;;;5036130;28;20419;-68
2022/04/14 06:02:19;;;;;;;4.53;4.03;;;13.40;99.90;;;;;;5036005;28;20546;-67
2022/04/14 06:04:45;;;;;;;4.07;3.77;;;13.60;99.90;;;;;;5035372;28;20205;-68
2022/04/14 06:07:10;;;;;;;4.20;3.23;;;13.70;99.90;;;;;;5035677;28;20210;-68
2022/04/14 06:09:36;;;;;;;12.63;4.60;;;13.80;99.90;;;;;;5035956;28;20209;-69
2022/04/14 06:12:02;;;;;;;4.43;3.83;;;14.00;99.90;;;;;;5035320;28;20202;-70
2022/04/14 06:14:30;;;;;;;4.90;4.40;;;14.30;99.90;;;;;;5035706;28;20536;-69
2022/04/14 06:16:56;;;;;;;5.17;4.13;;;14.50;99.90;;;;;;5035843;28;20162;-70
2022/04/14 06:19:21;;;;;;;5.83;3.80;;;14.70;99.90;;;;;;5035612;28;20436;-68
2022/04/14 06:21:47;;;;;;;5.43;4.73;;;14.80;99.90;;;;;;5035929;28;20178;-68
2022/04/14 06:24:13;;;;;;;4.50;4.10;;;15.00;99.90;;;;;;5035537;28;20205;-70
2022/04/14 06:26:39;;;;;;;5.70;3.90;;;15.10;99.90;;;;;;5035287;28;20201;-68
2022/04/14 06:29:04;;;;;;;5.60;3.93;;;15.20;99.90;;;;;;5035615;28;20206;-67
2022/04/14 06:31:30;;;;;;;5.03;4.33;;;15.30;99.90;;;;;;5034700;28;20511;-66
2022/04/14 06:33:55;;;;;;;8.67;4.43;;;15.60;99.90;;;;;;5035286;28;20209;-67
2022/04/14 06:36:21;;;;;;;6.73;5.97;;;16.00;99.90;;;;;;5035298;28;20226;-70
2022/04/14 06:38:47;;;;;;;5.37;4.90;;;16.40;99.90;;;;;;5035471;28;20202;-67
2022/04/14 06:41:12;;;;;;;6.97;5.40;;;16.80;99.90;;;;;;5035496;28;20227;-70
2022/04/14 06:43:38;;;;;;;6.13;5.57;;;17.20;99.90;;;;;;5035048;28;20234;-71
2022/04/14 06:46:04;;;;;;;5.87;5.27;;;17.30;99.90;;;;;;5033850;28;20209;-70
2022/04/14 06:48:32;;;;;;;6.53;5.87;;;17.50;99.70;;;;;;5035281;28;20216;-70
2022/04/14 06:50:59;;;;;;;5.97;5.47;;;17.70;99.50;;;;;;5034479;28;20237;-68
2022/04/14 06:53:25;;;;;;;5.87;5.23;;;17.80;99.20;;;;;;5035078;28;20460;-69
2022/04/14 06:55:52;;;;;;;6.47;5.73;;;17.90;99.40;;;;;;5035082;28;20461;-68
2022/04/14 06:58:18;;;;;;;5.33;4.83;;;18.10;99.20;;;;;;5036005;28;20189;-68
2022/04/14 07:00:44;;;;;;;6.93;6.33;;;18.30;99.50;;;;;;5033920;28;20781;-67
2022/04/14 07:03:10;;;;;;;8.00;5.90;;;18.80;98.60;;;;;;5034796;28;20190;-68
2022/04/14 07:05:36;;;;;;;5.23;4.83;;;19.30;98.20;;;;;;5033358;28;20466;-69
2022/04/14 07:08:01;;;;;;;8.50;5.53;;;19.60;97.60;;;;;;5034979;28;20239;-69
2022/04/14 07:10:27;;;;;;;7.93;6.73;;;20.00;96.90;;;;;;5035104;28;20401;-70
2022/04/14 07:12:53;;;;;;;10.70;8.27;;;20.10;96.60;;;;;;5034894;28;20166;-70
2022/04/14 07:15:19;;;;;;;8.23;7.23;;;20.50;97.60;;;;;;5034620;28;20182;-70
2022/04/14 07:17:44;;;;;;;8.90;8.00;;;20.90;97.30;;;;;;5034792;28;20408;-68
2022/04/14 07:20:10;;;;;;;9.93;8.30;;;21.20;96.90;;;;;;5034494;28;20637;-69
2022/04/14 07:22:49;;;;;;;10.07;7.37;;;21.50;97.40;;;;;;5034686;28;20189;-70
2022/04/14 07:25:15;;;;;;;10.20;8.10;;;21.70;96.20;;;;;;5034587;28;20305;-71
2022/04/14 07:27:42;;;;;;;10.30;8.67;;;21.90;96.10;;;;;;5034828;28;20914;-69
2022/04/14 07:30:09;;;;;;;10.17;9.20;;;22.10;96.70;;;;;;5032456;28;20793;-70
2022/04/14 07:32:36;;;;;;;9.60;7.03;;;22.40;96.20;;;;;;5034559;28;20413;-69
2022/04/14 07:35:05;;;;;;;10.60;8.77;;;22.60;96.00;;;;;;5032846;28;20442;-70
2022/04/14 07:37:32;;;;;;;11.60;9.50;;;23.00;95.40;;;;;;5045027;28;20507;-71
2022/04/14 07:39:58;;;;;;;11.70;9.10;;;23.30;95.30;;;;;;5035641;28;20417;-71
2022/04/14 07:42:35;;;;;;;11.53;9.10;;;23.30;94.30;;;;;;5039023;28;20421;-71
2022/04/14 07:45:01;;;;;;;11.43;9.87;;;23.10;94.50;;;;;;5042902;28;20807;-68
2022/04/14 07:47:26;;;;;;;8.27;7.33;;;23.20;94.60;;;;;;5034576;28;20511;-67
2022/04/14 07:49:52;;;;;;;8.70;7.90;;;23.60;94.60;;;;;;5034627;28;20543;-69
2022/04/14 07:52:18;;;;;;;9.70;7.90;;;23.90;93.30;;;;;;5035059;28;20162;-66
2022/04/14 07:54:44;;;;;;;11.07;8.60;;;24.40;93.10;;;;;;5034538;28;20224;-68
2022/04/14 07:57:10;;;;;;;13.80;8.40;;;25.00;92.40;;;;;;5034034;28;20166;-67
2022/04/14 07:59:36;;;;;;;9.83;8.93;;;25.70;91.40;;;;;;5034098;28;20399;-68
2022/04/14 08:02:02;;;;;;;9.60;8.60;;;26.20;90.50;;;;;;5031960;28;20461;-69
2022/04/14 08:04:30;;;;;;;12.07;9.30;;;26.70;88.30;;;;;;5032779;28;20450;-67
2022/04/14 08:06:56;;;;;;;9.93;8.53;;;27.20;86.80;;;;;;5024743;28;20179;-68
2022/04/14 08:09:21;;;;;;;11.17;9.00;;;27.60;85.80;;;;;;5033831;28;20790;-68
2022/04/14 08:11:47;;;;;;;9.17;8.30;;;27.70;84.80;;;;;;5028087;28;20182;-68
2022/04/14 08:14:13;;;;;;;12.87;9.77;;;27.90;82.40;;;;;;5032966;28;20193;-70
2022/04/14 08:16:38;;;;;;;13.10;9.40;;;27.90;82.40;;;;;;5029593;28;20206;-68
2022/04/14 08:19:04;;;;;;;10.47;9.43;;;28.20;81.90;;;;;;5033089;28;20653;-71
2022/04/14 08:21:30;;;;;;;10.30;9.30;;;27.90;79.20;;;;;;5033432;28;20202;-69
2022/04/14 08:23:57;;;;;;;8.70;7.90;;;27.90;80.00;;;;;;5033135;28;20159;-70
2022/04/14 08:26:23;;;;;;;11.03;9.87;;;28.40;81.00;;;;;;5033523;28;20538;-68
2022/04/14 08:28:49;;;;;;;8.53;7.73;;;28.60;78.40;;;;;;5033676;28;20500;-67
2022/04/14 08:31:16;;;;;;;8.87;7.80;;;28.60;77.20;;;;;;5032412;28;20701;-70
2022/04/14 08:33:43;;;;;;;9.97;8.10;;;28.90;77.90;;;;;;5031641;28;20405;-68
2022/04/14 08:36:13;;;;;;;10.53;9.47;;;29.20;74.90;;;;;;5033319;28;20447;-68
2022/04/14 08:38:40;;;;;;;7.90;7.20;;;29.00;74.90;;;;;;5033560;28;20437;-68
2022/04/14 08:41:08;;;;;;;10.37;9.20;;;29.10;74.90;;;;;;5033610;28;20405;-68
2022/04/14 08:43:35;;;;;;;9.20;8.07;;;28.90;74.60;;;;;;5033233;28;20499;-68
2022/04/14 08:46:03;;;;;;;9.87;8.60;;;29.20;75.70;;;;;;5032172;28;20433;-69
2022/04/14 08:48:29;;;;;;;10.47;9.50;;;29.50;74.80;;;;;;5033357;28;20416;-68
2022/04/14 08:50:55;;;;;;;12.37;10.10;;;29.60;74.80;;;;;;5033197;28;20479;-70
2022/04/14 08:53:26;;;;;;;9.80;8.90;;;29.40;73.00;;;;;;5033158;28;20181;-68
2022/04/14 08:55:52;;;;;;;10.77;8.73;;;29.20;74.40;;;;;;5033551;28;20816;-69
2022/04/14 08:58:19;;;;;;;10.97;9.83;;;29.70;74.10;;;;;;5033368;28;20461;-68
2022/04/14 09:00:45;;;;;;;7.57;6.90;;;30.10;72.50;;;;;;5033360;28;20405;-69
2022/04/14 09:03:18;;;;;;;9.60;8.60;;;30.00;72.30;;;;;;5032367;28;20927;-70
2022/04/14 09:05:43;;;;;;;10.23;9.13;;;29.70;71.20;;;;;;5033361;28;20429;-67
2022/04/14 09:08:09;;;;;;;12.33;8.67;;;29.50;71.30;;;;;;5033406;28;20463;-69
2022/04/14 09:10:39;;;;;;;8.90;8.07;;;29.10;73.10;;;;;;5032237;28;20304;-67
2022/04/14 09:13:05;;;;;;;7.13;6.53;;;29.60;73.40;;;;;;5032111;28;20174;-72
2022/04/14 09:15:31;;;;;;;10.50;9.43;;;30.40;72.30;;;;;;5032932;28;20939;-68
2022/04/14 09:17:57;;;;;;;10.00;9.13;;;31.10;70.20;;;;;;5032225;28;20633;-70
2022/04/14 09:20:31;;;;;;;9.70;8.80;;;31.20;68.30;;;;;;5031247;28;20178;-69
2022/04/14 09:23:36;;;;;;;10.93;9.83;;;31.20;66.80;;;;;;5032964;28;20264;-69
2022/04/14 09:26:11;;;;;;;9.50;8.60;;;31.10;67.90;;;;;;5010061;28;20419;-69
2022/04/14 09:28:37;;;;;;;8.67;7.97;;;31.50;67.50;;;;;;5010917;28;20428;-70
2022/04/14 09:31:11;;;;;;;10.60;9.73;;;32.00;67.30;;;;;;5011142;28;20481;-70
2022/04/14 09:33:48;;;;;;;11.10;10.00;;;32.10;63.90;;;;;;5010407;28;20179;-69
2022/04/14 09:36:19;;;;;;;10.23;9.23;;;31.60;65.00;;;;;;5010772;28;20583;-68
2022/04/14 09:38:50;;;;;;;10.93;10.00;;;31.30;67.00;;;;;;5010727;28;20511;-70
2022/04/14 09:41:30;;;;;;;10.80;9.80;;;31.20;65.60;;;;;;5011112;28;20402;-69
2022/04/14 09:43:57;;;;;;;10.70;9.67;;;31.20;65.80;;;;;;5010211;28;20408;-69
2022/04/14 09:46:23;;;;;;;10.50;9.40;;;30.70;65.40;;;;;;5010828;28;20442;-69
2022/04/14 09:49:07;;;;;;;10.10;9.20;;;30.70;67.30;;;;;;5010429;28;20425;-70
2022/04/14 09:51:35;;;;;;;11.13;10.13;;;31.30;67.30;;;;;;5010967;28;20171;-68
2022/04/14 09:54:18;;;;;;;9.93;9.13;;;31.30;66.10;;;;;;5026694;28;21082;-69
2022/04/14 09:56:48;;;;;;;9.40;8.60;;;31.40;66.40;;;;;;5011801;28;20426;-69
2022/04/14 09:59:17;;;;;;;8.70;7.80;;;31.60;62.00;;;;;;5032752;28;20487;-70
2022/04/14 10:01:43;;;;;;;10.20;8.73;;;31.60;64.20;;;;;;5033069;28;20496;-68
2022/04/14 10:04:34;;;;;;;10.03;9.13;;;32.00;63.40;;;;;;5035561;28;20436;-69
2022/04/14 10:07:12;;;;;;;7.30;6.70;;;32.50;62.40;;;;;;5036019;28;20405;-72
2022/04/14 10:09:40;;;;;;;9.23;8.37;;;32.50;62.40;;;;;;5036313;28;20417;-72
2022/04/14 10:12:23;;;;;;;10.80;9.80;;;32.50;61.20;;;;;;5035858;28;20404;-74
2022/04/14 10:15:09;;;;;;;10.40;7.77;;;32.20;61.20;;;;;;5035352;28;20460;-71
2022/04/14 10:17:40;;;;;;;9.20;8.47;;;32.00;62.10;;;;;;5026732;28;20933;-72
2022/04/14 10:20:12;;;;;;;9.93;9.00;;;31.90;62.60;;;;;;5028677;28;20464;-74
2022/04/14 10:22:38;;;;;;;13.63;10.67;;;31.80;63.10;;;;;;5035888;28;20649;-73
2022/04/14 10:25:05;;;;;;;19.27;9.13;;;31.60;60.60;;;;;;5035464;28;20444;-72
2022/04/14 10:27:33;;;;;;;9.90;9.00;;;31.40;61.10;;;;;;5036047;28;20625;-72
2022/04/14 10:29:59;;;;;;;11.13;10.13;;;31.00;62.00;;;;;;5034775;28;20414;-71
2022/04/14 10:32:25;;;;;;;8.80;8.10;;;30.40;62.90;;;;;;5035611;28;20421;-69
2022/04/14 10:34:52;;;;;;;10.17;9.20;;;30.10;65.80;;;;;;5035170;28;20445;-71
2022/04/14 10:37:24;;;;;;;9.50;8.70;;;29.40;65.70;;;;;;5034460;28;20490;-70
2022/04/14 10:39:50;;;;;;;10.10;9.20;;;29.00;66.20;;;;;;5034160;28;20513;-69
2022/04/14 10:42:25;;;;;;;9.77;8.77;;;28.80;67.70;;;;;;5035861;28;20891;-69
2022/04/14 10:44:52;;;;;;;10.37;9.30;;;28.90;66.90;;;;;;5034968;28;20434;-70
2022/04/14 10:47:43;;;;;;;8.67;7.77;;;28.90;67.00;;;;;;5034187;28;20827;-68
2022/04/14 10:50:29;;;;;;;9.80;8.87;;;28.90;68.30;;;;;;5035224;28;20411;-66
2022/04/14 10:53:12;;;;;;;10.87;9.77;;;28.80;67.00;;;;;;5035523;28;20406;-68
2022/04/14 10:55:41;;;;;;;11.37;10.27;;;28.50;69.40;;;;;;5034273;28;20501;-67
2022/04/14 10:58:27;;;;;;;9.43;8.57;;;28.50;68.80;;;;;;5034046;28;20407;-68
2022/04/14 11:00:56;;;;;;;10.60;9.60;;;28.10;70.30;;;;;;5035198;28;20388;-68
2022/04/14 11:03:45;;;;;;;9.73;8.73;;;27.60;70.90;;;;;;5034612;28;20763;-67
2022/04/14 11:06:40;;;;;;;10.23;9.00;;;27.70;72.10;;;;;;5034905;28;20483;-68
2022/04/14 11:09:06;;;;;;;10.50;9.23;;;27.50;72.30;;;;;;5034994;28;20388;-68
2022/04/14 11:11:59;;;;;;;12.77;9.67;;;27.30;72.30;;;;;;5034522;28;20395;-67
2022/04/14 11:14:25;;;;;;;10.40;8.97;;;26.60;74.20;;;;;;5034543;28;20380;-70
2022/04/14 11:16:50;;;;;;;9.13;8.30;;;26.10;75.10;;;;;;5034597;28;20419;-71
2022/04/14 11:19:19;;;;;;;9.93;8.43;;;25.70;77.30;;;;;;5035055;28;20194;-72
2022/04/14 11:22:04;;;;;;;9.60;8.63;;;25.30;77.30;;;;;;5034719;28;20174;-72
2022/04/14 11:24:37;;;;;;;9.37;7.60;;;24.80;80.10;;;;;;5034388;28;20940;-72
2022/04/14 11:27:17;;;;;;;9.50;8.60;;;24.50;81.20;;;;;;5034267;28;20417;-71
2022/04/14 11:29:48;;;;;;;12.17;9.23;;;24.00;82.80;;;;;;5034858;28;20405;-71
2022/04/14 11:32:34;;;;;;;10.70;8.17;;;23.70;85.20;;;;;;5032606;28;20424;-71
2022/04/14 11:35:13;;;;;;;9.97;8.93;;;23.50;85.20;;;;;;5033973;28;20429;-70
2022/04/14 11:37:40;;;;;;;9.30;8.17;;;23.40;85.70;;;;;;5014655;28;20414;-71
2022/04/14 11:40:21;;;;;;;12.43;9.17;;;23.30;85.50;;;;;;5035022;28;20426;-70
2022/04/14 11:42:52;;;;;;;9.60;7.67;;;23.20;85.60;;;;;;5034267;28;20424;-72
2022/04/14 11:45:26;;;;;;;7.67;6.80;;;23.00;84.60;;;;;;5034599;28;20500;-74
2022/04/14 11:47:54;;;;;;;10.70;8.47;;;22.80;84.80;;;;;;5034340;28;20446;-69
2022/04/14 11:50:24;;;;;;;11.13;8.30;;;22.70;87.60;;;;;;5034047;28;20437;-71
2022/04/14 11:52:55;;;;;;;9.63;6.77;;;22.60;87.50;;;;;;5021648;28;20421;-71
2022/04/14 11:55:38;;;;;;;11.43;7.27;;;22.60;88.70;;;;;;5030703;28;20450;-72
2022/04/14 11:58:09;;;;;;;7.90;6.80;;;22.60;87.20;;;;;;5033260;28;20430;-74
2022/04/14 12:00:46;;;;;;;7.90;7.10;;;22.60;87.40;;;;;;5033882;28;20421;-72
2022/04/14 12:03:12;;;;;;;6.67;6.00;;;22.80;87.70;;;;;;5033996;28;20510;-71
2022/04/14 12:05:40;;;;;;;9.53;8.23;;;22.90;87.10;;;;;;5033892;28;20449;-72
2022/04/14 12:08:10;;;;;;;9.53;6.40;;;23.10;87.60;;;;;;5034569;28;20378;-71
2022/04/14 12:10:37;;;;;;;9.33;6.77;;;23.20;86.90;;;;;;5033877;28;20512;-69
2022/04/14 12:13:10;;;;;;;8.17;7.07;;;23.20;86.90;;;;;;5034029;28;20525;-69
2022/04/14 12:15:37;;;;;;;9.60;6.47;;;23.20;88.10;;;;;;5033478;28;20510;-68
2022/04/14 12:18:08;;;;;;;7.40;6.70;;;23.20;86.50;;;;;;5033685;28;20726;-68
2022/04/14 12:20:40;;;;;;;11.47;8.50;;;23.10;86.60;;;;;;5033564;28;20427;-68
2022/04/14 12:23:09;;;;;;;14.63;8.27;;;23.10;88.40;;;;;;5033510;28;20883;-68
2022/04/14 12:25:36;;;;;;;9.47;7.30;;;23.00;89.40;;;;;;5032857;28;20447;-68
2022/04/14 12:28:03;;;;;;;12.37;8.60;;;22.80;86.30;;;;;;5028718;28;20846;-68
2022/04/14 12:30:29;;;;;;;10.23;7.33;;;22.60;87.90;;;;;;5034665;28;20416;-69
2022/04/14 12:33:06;;;;;;;11.67;8.23;;;22.60;90.40;;;;;;5033904;28;20464;-69
2022/04/14 12:35:43;;;;;;;7.50;6.50;;;22.50;88.30;;;;;;5033252;28;20446;-67
2022/04/14 12:38:17;;;;;;;7.33;6.20;;;22.40;88.90;;;;;;5033694;28;20465;-68
2022/04/14 12:40:59;;;;;;;8.10;7.00;;;22.30;89.40;;;;;;5033320;28;20779;-69
2022/04/14 12:43:50;;;;;;;7.87;6.33;;;22.30;90.10;;;;;;5032625;28;20425;-65
2022/04/14 12:46:34;;;;;;;8.73;7.60;;;22.40;90.30;;;;;;5033151;28;20441;-66
2022/04/14 12:49:02;;;;;;;5.83;5.27;;;22.40;89.00;;;;;;5033363;28;20402;-68
2022/04/14 12:51:38;;;;;;;6.70;6.00;;;22.40;88.90;;;;;;5032111;28;20879;-67
2022/04/14 12:54:05;;;;;;;7.60;6.23;;;22.50;90.50;;;;;;5012991;28;20941;-66